Home > Products > Valid Products > TAF

000
FTUS44 KEPZ 311700
TAFTCS
TAF
KTCS 311739Z 3118/0118 VRB05KT P6SM FEW080 SCT220
     FM312000 17013G20KT P6SM FEW080 SCT250
     FM010400 19010KT P6SM VCSH SCT050 BKN200
     FM011200 VRB05KT P6SM SCT040 BKN250=



000
FTUS44 KEPZ 311700
TAFELP
TAF
KELP 311739Z 3118/0118 11012KT P6SM SCT250
     FM312200 12013G19KT P6SM FEW080 SCT250
     FM010500 11008KT P6SM VCSH SCT050 BKN200
     FM011500 15006KT P6SM FEW050 SCT080 BKN200=



000
FTUS44 KEPZ 311700
TAFDMN
TAF
KDMN 311739Z 3118/0118 10013G22KT P6SM SCT120 SCT250
     FM312100 12010KT P6SM SCT080 BKN220
     FM010400 08008KT P6SM VCSH SCT050 BKN200
     FM011200 07010KT P6SM SCT040 SCT250=



000
FTUS44 KEPZ 311100
TAFTCS
TAF
KTCS 311133Z 3112/0112 33008KT P6SM SCT250
     FM312000 15012KT P6SM SCT060 BKN200=



000
FTUS44 KEPZ 311100
TAFELP
TAF
KELP 311133Z 3112/0112 07010KT P6SM SCT250
     FM312100 11010KT P6SM SCT070 BKN200=



000
FTUS44 KEPZ 311100
TAFDMN
TAF
KDMN 311133Z 3112/0112 07010KT P6SM SCT250
     FM312000 12012KT P6SM SCT070 BKN150=



000
FTUS44 KEPZ 310500
TAFTCS
TAF
KTCS 310524Z 3106/0106 35010G17KT P6SM BKN250
     FM311400 03013KT P6SM BKN250
     FM311900 12010G17KT P6SM BKN250=



000
FTUS44 KEPZ 310500
TAFELP
TAF
KELP 310524Z 3106/0106 06010KT P6SM SKC
     FM311000 06013G20KT P6SM SCT250=



000
FTUS44 KEPZ 310500
TAFDMN
TAF
KDMN 310524Z 3106/0106 07013KT P6SM BKN250
     FM311400 08018G26KT P6SM BKN250=



000
FTUS44 KEPZ 310100 AAA
TAFTCS
TAF AMD
KTCS 310111Z 3101/3124 05009KT P6SM SKC
     FM310500 35010G16KT P6SM BKN250
     FM311400 03008KT P6SM BKN250=



000
FTUS44 KEPZ 310100 AAA
TAFDMN
TAF AMD
KDMN 310111Z 3101/3124 07008KT P6SM SKC
     FM310400 07014KT P6SM BKN250
     FM311400 07018G26KT P6SM BKN250=



000
FTUS44 KEPZ 310100 AAA
TAFELP
TAF AMD
KELP 310111Z 3101/3124 03010KT P6SM SKC
     FM311000 08013G20KT P6SM SCT250=



000
FTUS44 KEPZ 302300 RRA
TAFDMN
TAF
KDMN 302338Z 3100/3118 07008KT P6SM SKC
     FM310400 07014KT P6SM BKN250
     FM311400 07018G26KT P6SM BKN250=



000
FTUS44 KEPZ 302300 RRA
TAFTCS
TAF
KTCS 302338Z 3100/3118 05009KT P6SM SKC
     FM310500 35010G16KT P6SM BKN250
     FM311400 03008KT P6SM BKN250=



000
FTUS44 KEPZ 302300 RRA
TAFELP
TAF
KELP 302338Z 3100/3118 03010KT P6SM SKC
     FM311000 08013G20KT P6SM SCT250=



000
FTUS44 KEPZ 301700
TAFTCS
TAF
KTCS 301731Z 3018/3118 08009KT P6SM SKC
     FM310400 02010KT P6SM BKN250=



000
FTUS44 KEPZ 301700
TAFDMN
TAF
KDMN 301731Z 3018/3118 08009KT P6SM SKC
     FM310400 07010KT P6SM BKN250
     FM311200 09013G18KT P6SM BKN250=



000
FTUS44 KEPZ 301700
TAFELP
TAF
KELP 301731Z 3018/3118 06008KT P6SM SKC
     FM311000 08013G20KT P6SM SCT250=



000
FTUS44 KEPZ 301700
TAFTCS
TAF
KTCS 301731Z 3018/3118 08009KT P6SM SKC
     FM310400 02010KT P6SM BKN250=



000
FTUS44 KEPZ 301700
TAFDMN
TAF
KDMN 301731Z 3018/3118 08009KT P6SM SKC
     FM310400 07010KT P6SM BKN250
     FM311200 09013G18KT P6SM BKN250=



000
FTUS44 KEPZ 301700
TAFELP
TAF
KELP 301731Z 3018/3118 06008KT P6SM SKC
     FM311000 08013G20KT P6SM SCT250=



000
FTUS44 KEPZ 301100 RRA
TAFTCS
TAF
KTCS 301142Z 3012/3112 30006KT P6SM SKC
     FM301900 04009KT P6SM SKC
     FM310400 07012G18KT P6SM SCT250=



000
FTUS44 KEPZ 301100 RRA
TAFELP
TAF
KELP 301142Z 3012/3112 VRB05KT P6SM SKC
     FM301900 09008KT P6SM SKC
     FM310500 08013G20KT P6SM SCT250=



000
FTUS44 KEPZ 301100 RRA
TAFDMN
TAF
KDMN 301142Z 3012/3112 VRB04KT P6SM SKC
     FM301900 08009KT P6SM SKC
     FM310400 09010KT P6SM FEW180 BKN250=



000
FTUS44 KEPZ 300500
TAFTCS
TAF
KTCS 300520Z 3006/3106 30006KT P6SM SKC
     FM301800 04008KT P6SM SKC=



000
FTUS44 KEPZ 300500
TAFELP
TAF
KELP 300520Z 3006/3106 01005KT P6SM SKC
     FM302200 04007KT P6SM SKC=



000
FTUS44 KEPZ 300500
TAFDMN
TAF
KDMN 300520Z 3006/3106 32004KT P6SM SKC
     FM301600 07008KT P6SM SKC=



000
FTUS44 KEPZ 292300 RRA
TAFELP
TAF
KELP 292350Z 3000/3024 VRB06KT P6SM FEW090
     FM300300 03005KT P6SM SKC=



000
FTUS44 KEPZ 292300 RRA
TAFDMN
TAF
KDMN 292350Z 3000/3024 VRB04KT P6SM SKC
     FM301200 03006KT P6SM SKC=



000
FTUS44 KEPZ 292300 RRA
TAFTCS
TAF
KTCS 292350Z 3000/3024 VRB04KT P6SM SKC
     FM300500 30006KT P6SM SKC=



000
FTUS44 KEPZ 291700
TAFDMN
TAF
KDMN 291720Z 2918/3018 13006KT P6SM SKC
     FM300400 VRB04KT P6SM SKC
     FM301200 03006KT P6SM SKC=



000
FTUS44 KEPZ 291700
TAFTCS
TAF
KTCS 291720Z 2918/3018 VRB04KT P6SM SKC
     FM300500 30006KT P6SM SKC=



000
FTUS44 KEPZ 291700
TAFELP
TAF
KELP 291720Z 2918/3018 09006KT P6SM SKC
     FM300300 03005KT P6SM SKC=



000
FTUS44 KEPZ 291100
TAFDMN
TAF
KDMN 291129Z 2912/3012 VRB04KT P6SM SKC
     FM292000 14006KT P6SM SKC
     FM300400 29004KT P6SM SKC=



000
FTUS44 KEPZ 291100
TAFTCS
TAF
KTCS 291129Z 2912/3012 32005KT P6SM SKC
     FM291500 12006KT P6SM SKC
     FM300600 30006KT P6SM SKC=



000
FTUS44 KEPZ 291100
TAFELP
TAF
KELP 291129Z 2912/3012 VRB04KT P6SM SKC
     FM291800 10006KT P6SM SKC=



000
FTUS44 KEPZ 290500
TAFTCS
TAF
KTCS 290527Z 2906/3006 31005KT P6SM SKC
     FM291500 VRB05KT P6SM SKC=



000
FTUS44 KEPZ 290500
TAFDMN
TAF
KDMN 290527Z 2906/3006 VRB06KT P6SM SKC
     FM292200 21006KT P6SM SKC=



000
FTUS44 KEPZ 290500
TAFELP
TAF
KELP 290527Z 2906/3006 VRB04KT P6SM SKC=



000
FTUS44 KEPZ 282300
TAFELP
TAF
KELP 282330Z 2900/2924 VRB05KT P6SM SKC
     FM290500 04005KT P6SM SKC=



000
FTUS44 KEPZ 282300
TAFTCS
TAF
KTCS 282330Z 2900/2924 VRB04KT P6SM SKC
     FM290400 31005KT P6SM SKC
     FM291500 VRB05KT P6SM SKC=



000
FTUS44 KEPZ 282300
TAFDMN
TAF
KDMN 282330Z 2900/2924 VRB06KT P6SM SKC
     FM292200 21006KT P6SM SKC=



    US Dept of Commerce
    National Oceanic and Atmospheric Administration
    National Weather Service
    1325 East West Highway
    Silver Spring, MD 20910
    Page Author: NWS Internet Services Team
Disclaimer
Information Quality
Credits
Glossary
Privacy Policy
Freedom of Information Act (FOIA)
About Us
Career Opportunities